DGAA

Kotoka International Airport

Accra, Ghana
METAR DGAA 250000Z 23009KT CAVOK 28/24 Q1012 NOSIG
Observed Flight Rules
Apr-25 @ 00:00 UTC (46 minutes ago) Visual Flight Rules
Wind Visibility Clouds
230° at 9 knots 10,000+ meters
  • Clear skies
Temperatures Readings
Current 28°C / 82°F
Dewpoint 24°C / 75°F
Humidity 79%
Altimeter 29.88" Hg
Pressure 1012 hPa
Elevation 69
METAR DGAA 250000Z 23009KT CAVOK 28/24 Q1012 NOSIG
Observed Flight Rules
Apr-25 @ 00:00 UTC
(46 minutes ago)
VFR
Wind Visibility
230° at 9 knots 10,000+ meters
Clouds
  • Clear skies
Temperature Dewpoint
28°C / 82°F 24°C / 75°F
Humidity Altimeter Pressure
79% 29.88" Hg 1012 hPa